Nearby METAR Reports

YMLT - Launceston Airpo, Australia
Distance from station: N 179km
Updated: 29/10/2020 23:30
Clear
Clear
 Wind from NW
Wind: NW 13 km/h
Temperature: 8°C
Wind Chill: 6°C
Dew Point: 6°C
Humidity: 87%
Barometer: 1013 hPa
Clouds: Clear
Visibility: 10 km
2020/10/29 12:30 YMLT 291230Z AUTO 32007KT 9999 // NCD 08/06 Q1013 RF00.0/000.0
YMHB - Hobart/Tasmania, Australia
Distance from station: NE 55km
Updated: 29/10/2020 23:30
Mostly cloudy
Mostly cloudy
 Wind from SE
Wind: SE 2 km/h
Temperature: 13°C
Dew Point: 8°C
Humidity: 72%
Barometer: 1013 hPa
Clouds: Mostly cloudy
Visibility: 10 km
Cloud details: Partly cloudy 1676 m
Mostly cloudy 3048 m
2020/10/29 12:30 YMHB 291230Z 13001KT 9999 SCT055 BKN100 13/08 Q1013 RF00.0/000.0
 
YMAV - Avalon Airport, Australia
Distance from station: NNW 601km
Updated: 29/10/2020 23:30
Overcast
Overcast
 Wind from S
Wind: S 9 km/h
Temperature: 13°C
Dew Point: 13°C
Humidity: 100%
Barometer: 1011 hPa
Clouds: Overcast
Visibility: 10 km
Cloud details: Overcast 2164 m
2020/10/29 12:30 YMAV 291230Z AUTO 17005KT 9999 // OVC071 13/13 Q1011 RF00.0/000.0
YMML - Melbourne Intl A, Australia
Distance from station: NNW 631km
Updated: 29/10/2020 23:30
Mostly cloudy
Mostly cloudy
 Wind from SSE
Wind: SSE 13 km/h
Temperature: 14°C
Dew Point: 12°C
Humidity: 88%
Barometer: 1011 hPa
Clouds: Mostly cloudy
Visibility: 10 km
Cloud details: Few Clouds 396 m
Mostly cloudy 2164 m
Mostly cloudy 3810 m
2020/10/29 12:30 YMML 291230Z 16007KT 9999 FEW013 BKN071 BKN125 14/12 Q1011 FM1330 19007KT 9999 FEW005 BKN008